createdAt,value
2022-08-17T00:00:51.847Z,25.34
2022-08-17T00:03:26.199Z,25.33
2022-08-17T00:05:56.726Z,25.34
2022-08-17T00:08:24.158Z,25.35
2022-08-17T00:10:50.608Z,25.34
2022-08-17T00:13:18.626Z,25.33
2022-08-17T00:15:45.290Z,25.31
2022-08-17T00:19:01.432Z,25.33
2022-08-17T00:20:58.144Z,25.31
2022-08-17T00:23:24.526Z,25.32
2022-08-17T00:25:50.879Z,25.31
2022-08-17T00:28:17.352Z,25.30
2022-08-17T00:30:50.849Z,25.32
2022-08-17T00:33:18.708Z,25.31
2022-08-17T00:35:45.504Z,25.31
2022-08-17T00:38:12.291Z,25.32
2022-08-17T00:40:45.719Z,25.32
2022-08-17T00:43:22.938Z,25.32
2022-08-17T00:45:49.323Z,25.31
2022-08-17T00:48:26.171Z,25.31
2022-08-17T00:50:58.181Z,25.32
2022-08-17T00:53:25.633Z,25.31
2022-08-17T00:55:52.018Z,25.31
2022-08-17T00:58:19.470Z,25.31
2022-08-17T01:01:02.628Z,25.31
2022-08-17T01:03:29.065Z,25.31
2022-08-17T01:05:56.344Z,25.28
2022-08-17T01:08:24.658Z,25.30
2022-08-17T01:10:58.954Z,25.29
2022-08-17T01:13:30.957Z,25.30
2022-08-17T01:16:07.670Z,25.30
2022-08-17T01:18:34.207Z,25.29
2022-08-17T01:21:03.274Z,25.28
2022-08-17T01:23:29.776Z,25.28
2022-08-17T01:25:57.135Z,25.28
2022-08-17T01:28:52.285Z,25.30
2022-08-17T01:31:09.862Z,25.29
2022-08-17T01:33:36.236Z,25.30
2022-08-17T01:36:03.540Z,25.28
2022-08-17T01:38:31.817Z,25.28
2022-08-17T01:41:02.060Z,25.28
2022-08-17T01:43:30.142Z,25.27
2022-08-17T01:46:02.734Z,25.27
2022-08-17T01:48:33.263Z,25.28
2022-08-17T01:50:59.650Z,25.27
2022-08-17T01:53:26.979Z,25.28
2022-08-17T01:55:57.167Z,25.27
2022-08-17T01:58:23.515Z,25.27
2022-08-17T02:01:01.272Z,25.27
2022-08-17T02:03:28.025Z,25.27
2022-08-17T02:05:54.515Z,25.28
2022-08-17T02:08:21.007Z,25.07
2022-08-17T02:11:07.371Z,25.17
2022-08-17T02:13:38.115Z,25.20
2022-08-17T02:16:04.490Z,25.20
2022-08-17T02:18:30.855Z,25.20
2022-08-17T02:20:57.237Z,25.19
2022-08-17T02:23:23.870Z,25.19
2022-08-17T02:25:50.262Z,25.18
2022-08-17T02:28:16.868Z,25.19
2022-08-17T02:31:02.094Z,25.19
2022-08-17T02:33:37.198Z,25.19
2022-08-17T02:36:09.922Z,25.18
2022-08-17T02:38:36.686Z,25.18
2022-08-17T02:41:03.060Z,25.18
2022-08-17T02:43:29.423Z,25.18
2022-08-17T02:45:55.788Z,25.17
2022-08-17T02:48:30.579Z,25.17
2022-08-17T02:50:57.697Z,25.17
2022-08-17T02:53:24.057Z,25.17
2022-08-17T02:55:52.367Z,25.15
2022-08-17T02:58:19.083Z,25.15
2022-08-17T03:01:03.212Z,25.14
2022-08-17T03:03:29.587Z,25.14
2022-08-17T03:05:55.940Z,25.14
2022-08-17T03:08:23.448Z,25.13
2022-08-17T03:10:50.460Z,25.14
2022-08-17T03:13:16.935Z,25.13
2022-08-17T03:15:45.093Z,25.12
2022-08-17T03:18:14.387Z,25.12
2022-08-17T03:20:50.769Z,25.11
2022-08-17T03:23:17.125Z,25.11
2022-08-17T03:25:45.930Z,25.11
2022-08-17T03:28:12.624Z,25.09
2022-08-17T03:30:39.000Z,25.10
2022-08-17T03:33:05.940Z,25.09
2022-08-17T03:35:32.805Z,25.09
2022-08-17T03:38:00.822Z,25.09
2022-08-17T03:40:36.985Z,25.09
2022-08-17T03:43:13.961Z,25.07
2022-08-17T03:46:00.872Z,25.06
2022-08-17T03:48:45.670Z,25.06
2022-08-17T03:51:40.338Z,25.06
2022-08-17T03:54:25.155Z,25.06
2022-08-17T03:56:59.671Z,25.05
2022-08-17T03:59:26.045Z,25.05
2022-08-17T04:01:53.173Z,25.05
2022-08-17T04:04:20.389Z,25.05
2022-08-17T04:06:54.169Z,25.04
2022-08-17T04:09:20.520Z,25.05
2022-08-17T04:11:46.949Z,25.03
2022-08-17T04:14:13.302Z,25.03
2022-08-17T04:16:40.152Z,25.03
2022-08-17T04:19:06.650Z,25.03
2022-08-17T04:21:33.269Z,25.02
2022-08-17T04:23:59.623Z,25.02
2022-08-17T04:26:52.527Z,25.02
2022-08-17T04:29:12.961Z,25.03
2022-08-17T04:31:39.320Z,25.03
2022-08-17T04:34:05.671Z,25.03
2022-08-17T04:36:32.035Z,25.03
2022-08-17T04:38:58.451Z,25.03
2022-08-17T04:41:43.309Z,25.03
2022-08-17T04:44:11.478Z,25.03
2022-08-17T04:46:37.825Z,25.02
2022-08-17T04:49:08.297Z,25.02
2022-08-17T04:51:39.397Z,25.02
2022-08-17T04:54:18.418Z,25.02
2022-08-17T04:56:44.780Z,25.02
2022-08-17T04:59:18.100Z,25.01
2022-08-17T05:01:45.428Z,25.02
2022-08-17T05:04:33.053Z,25.01
2022-08-17T05:07:01.041Z,25.01
2022-08-17T05:09:27.390Z,25.02
2022-08-17T05:11:53.748Z,25.00
2022-08-17T05:14:22.560Z,25.01
2022-08-17T05:16:59.651Z,25.00
2022-08-17T05:19:27.536Z,25.01
2022-08-17T05:21:53.889Z,25.01
2022-08-17T05:24:39.114Z,25.01
2022-08-17T05:27:06.875Z,25.01
2022-08-17T05:29:35.537Z,25.01
2022-08-17T05:32:39.509Z,25.02
2022-08-17T05:35:00.127Z,25.01
2022-08-17T05:37:26.552Z,25.02
2022-08-17T05:39:53.543Z,25.02
2022-08-17T05:42:20.071Z,25.02
2022-08-17T05:44:46.457Z,25.02
2022-08-17T05:47:12.838Z,25.01
2022-08-17T05:49:39.195Z,25.00
2022-08-17T05:52:05.509Z,25.03
2022-08-17T05:54:39.557Z,25.03
2022-08-17T05:57:15.342Z,25.03
2022-08-17T05:59:57.262Z,25.03
2022-08-17T06:02:26.550Z,25.03
2022-08-17T06:04:55.937Z,25.03
2022-08-17T06:07:28.697Z,25.03
2022-08-17T06:09:58.688Z,25.03
2022-08-17T06:12:28.012Z,25.04
2022-08-17T06:15:08.169Z,25.03
2022-08-17T06:17:34.515Z,25.03
2022-08-17T06:20:02.801Z,25.03
2022-08-17T06:22:31.142Z,25.03
2022-08-17T06:25:01.510Z,25.03
2022-08-17T06:27:36.042Z,25.04
2022-08-17T06:30:08.012Z,25.04
2022-08-17T06:32:35.799Z,25.03
2022-08-17T06:35:02.764Z,25.03
2022-08-17T06:37:44.130Z,25.03
2022-08-17T06:40:15.687Z,25.04
2022-08-17T06:43:02.438Z,25.03
2022-08-17T06:45:38.964Z,25.04
2022-08-17T06:48:13.066Z,25.04
2022-08-17T06:50:40.659Z,25.04
2022-08-17T06:53:14.109Z,25.03
2022-08-17T06:55:48.227Z,25.03
2022-08-17T06:58:15.693Z,25.04
2022-08-17T07:00:43.662Z,25.04
2022-08-17T07:03:37.530Z,25.04
2022-08-17T07:06:19.902Z,25.03
2022-08-17T07:08:52.089Z,25.04
2022-08-17T07:11:38.559Z,25.05
2022-08-17T07:14:17.404Z,25.04
2022-08-17T07:16:46.656Z,25.04
2022-08-17T07:19:13.789Z,25.05
2022-08-17T07:21:44.833Z,25.04
2022-08-17T07:24:30.656Z,25.04
2022-08-17T07:27:03.834Z,25.04
2022-08-17T07:29:34.242Z,25.05
2022-08-17T07:32:00.647Z,25.04
2022-08-17T07:34:27.239Z,25.05
2022-08-17T07:37:03.357Z,25.04
2022-08-17T07:39:30.295Z,25.04
2022-08-17T07:42:03.725Z,25.05
2022-08-17T07:44:30.073Z,25.05
2022-08-17T07:47:15.182Z,25.04
2022-08-17T07:49:42.218Z,25.05
2022-08-17T07:52:24.131Z,25.05
2022-08-17T07:54:56.086Z,25.05
2022-08-17T07:57:29.856Z,25.05
2022-08-17T08:00:03.191Z,25.05
2022-08-17T08:02:40.200Z,25.06
2022-08-17T08:05:46.643Z,25.06
2022-08-17T08:08:18.482Z,25.04
2022-08-17T08:10:45.946Z,25.05
2022-08-17T08:13:22.257Z,25.06
2022-08-17T08:15:55.329Z,25.05
2022-08-17T08:18:53.364Z,25.05
2022-08-17T08:21:24.299Z,25.05
2022-08-17T08:24:12.238Z,25.06
2022-08-17T08:26:46.388Z,25.06
2022-08-17T08:29:15.715Z,25.06
2022-08-17T08:31:56.170Z,25.06
2022-08-17T08:34:55.857Z,25.06
2022-08-17T08:37:39.114Z,25.06
2022-08-17T08:40:11.297Z,25.06
2022-08-17T08:42:56.653Z,25.07
2022-08-17T08:45:41.048Z,25.07
2022-08-17T08:48:23.119Z,25.07
2022-08-17T08:51:05.194Z,25.07
2022-08-17T08:53:38.946Z,25.07
2022-08-17T08:56:06.682Z,25.06
2022-08-17T08:58:50.762Z,25.07
2022-08-17T09:01:18.760Z,25.07
2022-08-17T09:03:53.347Z,25.07
2022-08-17T09:06:46.362Z,25.08
2022-08-17T09:09:27.932Z,25.08
2022-08-17T09:12:02.024Z,25.07
2022-08-17T09:14:45.439Z,25.07
2022-08-17T09:17:21.242Z,25.08
2022-08-17T09:19:55.357Z,25.07
2022-08-17T09:22:24.046Z,25.08
2022-08-17T09:24:54.639Z,25.08
2022-08-17T09:27:22.028Z,25.09
2022-08-17T09:29:53.952Z,25.09
2022-08-17T09:32:22.296Z,25.07
2022-08-17T09:34:53.559Z,25.08
2022-08-17T09:37:23.122Z,25.08
2022-08-17T09:39:58.353Z,25.08
2022-08-17T09:42:27.106Z,25.08
2022-08-17T09:44:59.538Z,25.08
2022-08-17T09:47:30.869Z,25.08
2022-08-17T09:50:11.434Z,25.08
2022-08-17T09:52:37.798Z,25.08
2022-08-17T09:55:04.181Z,25.09
2022-08-17T09:57:49.320Z,25.10
2022-08-17T10:00:18.798Z,25.09
2022-08-17T10:03:01.474Z,25.09
2022-08-17T10:05:33.638Z,25.09
2022-08-17T10:08:09.512Z,25.09
2022-08-17T10:10:56.505Z,25.11
2022-08-17T10:13:26.172Z,25.11
2022-08-17T10:15:59.921Z,25.11
2022-08-17T10:18:33.341Z,25.10
2022-08-17T10:21:19.687Z,25.11
2022-08-17T10:24:05.519Z,25.10
2022-08-17T10:26:46.332Z,25.10
2022-08-17T10:29:31.382Z,25.11
2022-08-17T10:32:22.747Z,25.11
2022-08-17T10:34:53.401Z,25.11
2022-08-17T10:37:19.860Z,25.11
2022-08-17T10:39:57.397Z,25.12
2022-08-17T10:42:32.673Z,25.11
2022-08-17T10:45:01.986Z,25.13
2022-08-17T10:47:55.174Z,25.12
2022-08-17T10:50:43.135Z,25.11
2022-08-17T10:53:09.710Z,25.13
2022-08-17T10:55:36.216Z,25.12
2022-08-17T10:58:20.988Z,25.12
2022-08-17T11:00:54.430Z,25.12
2022-08-17T11:03:21.171Z,25.11
2022-08-17T11:05:47.442Z,25.11
2022-08-17T11:08:20.363Z,25.12
2022-08-17T11:10:51.821Z,25.12
2022-08-17T11:13:34.225Z,25.11
2022-08-17T11:16:19.423Z,25.11
2022-08-17T11:18:53.485Z,25.12
2022-08-17T11:21:24.668Z,25.13
2022-08-17T11:23:57.266Z,25.14
2022-08-17T11:26:26.137Z,25.14
2022-08-17T11:28:56.214Z,25.14
2022-08-17T11:31:37.759Z,25.13
2022-08-17T11:34:05.398Z,25.13
2022-08-17T11:36:31.707Z,25.12
2022-08-17T11:39:02.103Z,25.14
2022-08-17T11:41:48.893Z,25.15
2022-08-17T11:44:41.251Z,25.15
2022-08-17T11:47:41.681Z,25.16
2022-08-17T11:50:38.736Z,25.17
2022-08-17T11:53:05.313Z,25.17
2022-08-17T11:55:35.780Z,25.16
2022-08-17T11:58:06.384Z,25.16
2022-08-17T12:00:44.865Z,25.15
2022-08-17T12:03:22.298Z,25.17
2022-08-17T12:05:48.725Z,25.18
2022-08-17T12:08:17.665Z,25.21
2022-08-17T12:10:59.297Z,25.21
2022-08-17T12:13:33.993Z,25.19
2022-08-17T12:16:07.211Z,25.21
2022-08-17T12:18:35.682Z,25.20
2022-08-17T12:21:15.413Z,25.21
2022-08-17T12:23:57.419Z,25.24
2022-08-17T12:26:30.170Z,25.23
2022-08-17T12:28:59.705Z,25.22
2022-08-17T12:31:34.611Z,25.24
2022-08-17T12:34:01.753Z,25.24
2022-08-17T12:36:28.359Z,25.25
2022-08-17T12:38:59.379Z,25.26
2022-08-17T12:41:41.274Z,25.29
2022-08-17T12:44:16.738Z,25.34
2022-08-17T12:46:48.941Z,25.35
2022-08-17T12:49:22.897Z,25.33
2022-08-17T12:51:49.265Z,25.31
2022-08-17T12:54:34.906Z,25.31
2022-08-17T12:57:04.113Z,25.28
2022-08-17T12:59:33.029Z,25.29
2022-08-17T13:01:59.516Z,25.30
2022-08-17T13:04:26.621Z,25.31
2022-08-17T13:06:58.162Z,25.32
2022-08-17T13:09:35.811Z,25.33
2022-08-17T13:12:06.956Z,25.33
2022-08-17T13:14:34.187Z,25.35
2022-08-17T13:17:01.126Z,25.36
2022-08-17T13:19:40.516Z,25.38
2022-08-17T13:22:09.434Z,25.39
2022-08-17T13:24:37.849Z,25.39
2022-08-17T13:27:08.166Z,25.37
2022-08-17T13:29:44.150Z,25.38
2022-08-17T13:32:14.098Z,25.38
2022-08-17T13:34:51.385Z,25.40
2022-08-17T13:37:32.581Z,25.40
2022-08-17T13:40:07.962Z,25.39
2022-08-17T13:42:51.780Z,25.43
2022-08-17T13:45:35.551Z,25.42
2022-08-17T13:48:11.966Z,25.43
2022-08-17T13:50:43.662Z,25.46
2022-08-17T13:53:23.383Z,25.45
2022-08-17T13:55:50.723Z,25.44
2022-08-17T13:58:24.609Z,25.44
2022-08-17T14:00:56.223Z,25.42
2022-08-17T14:03:22.926Z,25.44
2022-08-17T14:05:50.051Z,25.44
2022-08-17T14:08:16.935Z,25.43
2022-08-17T14:10:45.217Z,25.43
2022-08-17T14:13:13.113Z,25.43
2022-08-17T14:15:56.090Z,25.44
2022-08-17T14:18:41.963Z,25.45
2022-08-17T14:21:09.598Z,25.46
2022-08-17T14:23:36.520Z,25.44
2022-08-17T14:26:02.933Z,25.45
2022-08-17T14:28:29.295Z,25.46
2022-08-17T14:30:55.683Z,25.45
2022-08-17T14:33:24.441Z,25.45
2022-08-17T14:35:53.520Z,25.45
2022-08-17T14:38:19.952Z,25.45
2022-08-17T14:40:46.361Z,25.45
2022-08-17T14:43:12.742Z,25.45
2022-08-17T14:45:39.093Z,25.47
2022-08-17T14:48:07.471Z,25.46
2022-08-17T14:50:35.816Z,25.47
2022-08-17T14:53:04.360Z,25.47
2022-08-17T14:55:31.095Z,25.47
2022-08-17T14:57:57.506Z,25.45
2022-08-17T15:00:23.857Z,25.45
2022-08-17T15:02:53.603Z,25.46
2022-08-17T15:05:20.751Z,25.46
2022-08-17T15:07:47.138Z,25.47
2022-08-17T15:10:13.663Z,25.47
2022-08-17T15:12:40.766Z,25.47
2022-08-17T15:15:09.282Z,25.47
2022-08-17T15:17:45.080Z,25.47
2022-08-17T15:20:15.172Z,25.54
2022-08-17T15:22:41.756Z,25.55
2022-08-17T15:25:08.513Z,25.53
2022-08-17T15:27:35.071Z,25.51
2022-08-17T15:30:01.924Z,25.50
2022-08-17T15:32:32.106Z,25.52
2022-08-17T15:35:00.155Z,25.51
2022-08-17T15:37:26.693Z,25.49
2022-08-17T15:39:53.100Z,25.49
2022-08-17T15:42:20.063Z,25.49
2022-08-17T15:44:46.410Z,25.48
2022-08-17T15:47:12.850Z,25.49
2022-08-17T15:49:40.010Z,25.49
2022-08-17T15:52:15.339Z,25.49
2022-08-17T15:54:41.696Z,25.49
2022-08-17T15:57:11.692Z,25.50
2022-08-17T15:59:38.099Z,25.49
2022-08-17T16:03:13.177Z,25.49
2022-08-17T16:05:05.762Z,25.50
2022-08-17T16:07:36.671Z,25.49
2022-08-17T16:10:03.362Z,25.49
2022-08-17T16:12:29.743Z,25.49
2022-08-17T16:14:56.099Z,25.49
2022-08-17T16:17:39.002Z,25.49
2022-08-17T16:20:07.195Z,25.48
2022-08-17T16:22:36.384Z,25.49
2022-08-17T16:25:13.805Z,25.48
2022-08-17T16:27:40.244Z,25.49
2022-08-17T16:30:06.852Z,25.49
2022-08-17T16:32:33.211Z,25.47
2022-08-17T16:35:03.243Z,25.48
2022-08-17T16:37:30.853Z,25.48
2022-08-17T16:40:00.635Z,25.48
2022-08-17T16:42:26.976Z,25.48
2022-08-17T16:44:53.837Z,25.48
2022-08-17T16:47:20.291Z,25.48
2022-08-17T16:49:47.247Z,25.48
2022-08-17T16:52:14.882Z,25.48
2022-08-17T16:54:59.207Z,25.47
2022-08-17T16:57:25.574Z,25.47
2022-08-17T16:59:53.240Z,25.52
2022-08-17T17:02:30.374Z,25.57
2022-08-17T17:05:09.246Z,25.55
2022-08-17T17:07:54.810Z,25.56
2022-08-17T17:10:30.595Z,25.56
2022-08-17T17:13:03.507Z,25.56
2022-08-17T17:15:33.715Z,25.58
2022-08-17T17:18:06.912Z,25.58
2022-08-17T17:20:37.365Z,25.58
2022-08-17T17:23:14.134Z,25.58
2022-08-17T17:25:48.850Z,25.60
2022-08-17T17:28:18.564Z,25.60
2022-08-17T17:30:49.476Z,25.63
2022-08-17T17:33:22.410Z,25.62
2022-08-17T17:35:59.114Z,25.61
2022-08-17T17:38:29.178Z,25.62
2022-08-17T17:41:02.479Z,25.62
2022-08-17T17:43:45.104Z,25.63
2022-08-17T17:46:28.348Z,25.63
2022-08-17T17:48:55.225Z,25.64
2022-08-17T17:52:03.588Z,25.64
2022-08-17T17:54:20.843Z,25.65
2022-08-17T17:56:51.521Z,25.64
2022-08-17T17:59:20.991Z,25.64
2022-08-17T18:01:55.733Z,25.65
2022-08-17T18:04:23.746Z,25.66
2022-08-17T18:06:52.867Z,25.65
2022-08-17T18:09:19.544Z,25.66
2022-08-17T18:11:51.498Z,25.67
2022-08-17T18:14:22.473Z,25.66
2022-08-17T18:16:52.240Z,25.66
2022-08-17T18:19:21.512Z,25.66
2022-08-17T18:22:08.050Z,25.67
2022-08-17T18:24:41.350Z,25.68
2022-08-17T18:27:26.179Z,25.67
2022-08-17T18:29:53.227Z,25.68
2022-08-17T18:32:19.559Z,25.68
2022-08-17T18:34:48.078Z,25.68
2022-08-17T18:37:26.814Z,25.68
2022-08-17T18:39:53.301Z,25.70
2022-08-17T18:42:24.525Z,25.69
2022-08-17T18:44:54.907Z,25.70
2022-08-17T18:47:25.498Z,25.70
2022-08-17T18:50:18.037Z,25.70
2022-08-17T18:52:44.395Z,25.70
2022-08-17T18:55:14.839Z,25.69
2022-08-17T18:57:44.855Z,25.69
2022-08-17T19:00:11.274Z,25.69
2022-08-17T19:02:47.761Z,25.69
2022-08-17T19:05:49.687Z,25.70
2022-08-17T19:08:23.279Z,25.70
2022-08-17T19:10:55.715Z,25.71
2022-08-17T19:13:24.934Z,25.70
2022-08-17T19:16:13.718Z,25.71
2022-08-17T19:18:41.528Z,25.71
2022-08-17T19:21:10.025Z,25.71
2022-08-17T19:23:53.892Z,25.70
2022-08-17T19:26:54.010Z,25.69
2022-08-17T19:29:40.101Z,25.69
2022-08-17T19:32:09.838Z,25.70
2022-08-17T19:34:36.394Z,25.70
2022-08-17T19:37:06.800Z,25.70
2022-08-17T19:39:40.252Z,25.70
2022-08-17T19:42:09.588Z,25.69
2022-08-17T19:44:47.031Z,25.70
2022-08-17T19:47:53.750Z,25.70
2022-08-17T19:50:41.511Z,25.73
2022-08-17T19:53:36.893Z,25.72
2022-08-17T19:56:22.366Z,25.71
2022-08-17T19:58:51.606Z,25.74
2022-08-17T20:01:24.563Z,25.71
2022-08-17T20:03:52.489Z,25.74
2022-08-17T20:06:18.856Z,25.73
2022-08-17T20:08:52.831Z,25.73
2022-08-17T20:11:24.934Z,25.71
2022-08-17T20:14:03.574Z,25.70
2022-08-17T20:16:31.171Z,25.70
2022-08-17T20:19:02.700Z,25.71
2022-08-17T20:21:37.142Z,25.70
2022-08-17T20:24:24.961Z,25.70
2022-08-17T20:26:59.361Z,25.71
2022-08-17T20:29:39.706Z,25.70
2022-08-17T20:32:12.943Z,25.71
2022-08-17T20:34:39.758Z,25.71
2022-08-17T20:37:10.154Z,25.71
2022-08-17T20:39:39.564Z,25.71
2022-08-17T20:42:14.833Z,25.71
2022-08-17T20:44:41.481Z,25.69
2022-08-17T20:47:27.052Z,25.70
2022-08-17T20:49:57.933Z,25.71
2022-08-17T20:52:42.962Z,25.71
2022-08-17T20:55:09.489Z,25.71
2022-08-17T20:57:35.753Z,25.71
2022-08-17T21:00:15.161Z,25.72
2022-08-17T21:02:45.613Z,25.71
2022-08-17T21:05:30.038Z,25.72
2022-08-17T21:07:58.105Z,25.72
2022-08-17T21:10:24.636Z,25.72
2022-08-17T21:13:04.570Z,25.72
2022-08-17T21:15:35.055Z,25.71
2022-08-17T21:18:06.466Z,25.72
2022-08-17T21:20:40.542Z,25.71
2022-08-17T21:23:11.167Z,25.72
2022-08-17T21:25:54.862Z,25.72
2022-08-17T21:28:33.994Z,25.71
2022-08-17T21:31:09.123Z,25.72
2022-08-17T21:33:38.544Z,25.74
2022-08-17T21:36:16.981Z,25.72
2022-08-17T21:38:53.414Z,25.73
2022-08-17T21:41:46.426Z,25.72
2022-08-17T21:44:18.545Z,25.73
2022-08-17T21:46:46.677Z,25.73
2022-08-17T21:49:14.373Z,25.73
2022-08-17T21:51:44.679Z,25.72
2022-08-17T21:54:18.435Z,25.75
2022-08-17T21:56:45.979Z,25.75
2022-08-17T21:59:19.372Z,25.75
2022-08-17T22:01:55.960Z,25.75
2022-08-17T22:04:25.401Z,25.74
2022-08-17T22:06:56.752Z,25.75
2022-08-17T22:09:25.764Z,25.77
2022-08-17T22:11:55.195Z,25.83
2022-08-17T22:14:23.128Z,25.80
2022-08-17T22:17:05.427Z,25.80
2022-08-17T22:19:34.889Z,25.81
2022-08-17T22:22:05.328Z,25.83
2022-08-17T22:24:31.696Z,25.83
2022-08-17T22:27:00.046Z,25.83
2022-08-17T22:29:46.567Z,25.89
2022-08-17T22:32:31.471Z,25.88
2022-08-17T22:35:16.226Z,25.86
2022-08-17T22:37:42.578Z,25.85
2022-08-17T22:40:09.034Z,25.84
2022-08-17T22:42:47.212Z,25.83
2022-08-17T22:45:13.575Z,25.84
2022-08-17T22:47:42.951Z,25.84
2022-08-17T22:50:13.282Z,25.85
2022-08-17T22:53:00.468Z,25.84
2022-08-17T22:55:45.886Z,25.84
2022-08-17T22:58:31.662Z,25.85
2022-08-17T23:01:00.436Z,25.85
2022-08-17T23:03:27.901Z,25.84
2022-08-17T23:06:07.928Z,25.86
2022-08-17T23:08:36.962Z,25.84
2022-08-17T23:11:03.325Z,25.83
2022-08-17T23:13:31.919Z,25.83
2022-08-17T23:15:58.271Z,25.83
2022-08-17T23:18:27.315Z,25.82
2022-08-17T23:20:53.662Z,25.88
2022-08-17T23:23:23.878Z,25.84
2022-08-17T23:25:50.505Z,25.85
2022-08-17T23:28:16.905Z,25.85
2022-08-17T23:30:43.517Z,25.85
2022-08-17T23:33:14.208Z,25.84
2022-08-17T23:35:41.144Z,25.85
2022-08-17T23:38:10.688Z,25.83
2022-08-17T23:40:37.813Z,25.82
2022-08-17T23:43:23.607Z,25.80
2022-08-17T23:45:51.457Z,25.82
2022-08-17T23:48:35.146Z,25.81
2022-08-17T23:51:09.011Z,25.81
2022-08-17T23:53:36.642Z,25.80
2022-08-17T23:56:09.740Z,25.80
2022-08-17T23:58:38.363Z,25.81
